Time;durP1;ratioP1;P1;durP2;ratioP2;P2;SDS_P1;SDS_P2;PMS_P1;PMS_P2;Temp;Humidity;BMP_temperature;BMP_pressure;BME280_temperature;BME280_humidity;BME280_pressure;Samples;Min_cycle;Max_cycle;Signal;HPM_P1;HPM_P2
2022/04/25 03:13:34;;;;;;;0.10;0.10;;;;;;;;;;4806268;29;20160;-96
2022/04/25 03:16:05;;;;;;;0.10;0.10;;;;;;;;;;4796279;29;20059;-96
2022/04/25 03:25:20;;;;;;;0.10;0.10;;;;;;;;;;4815262;29;20058;-95
2022/04/25 04:02:45;;;;;;;0.10;0.10;;;;;;;;;;5379728;23;20059;-96
2022/04/25 04:05:22;;;;;;;0.10;0.10;;;;;;;;;;4796675;29;20050;-96
2022/04/25 04:07:53;;;;;;;0.20;0.20;;;;;;;;;;4796875;29;20050;-95
2022/04/25 04:10:36;;;;;;;;;;;;;;;;;;;;;
2022/04/25 04:13:25;;;;;;;0.10;0.10;;;;;;;;;;4827785;29;20057;-96
2022/04/25 04:15:52;;;;;;;0.10;0.10;;;;;;;;;;4795686;29;20054;-96
2022/04/25 04:26:09;;;;;;;0.30;0.30;;;;;;;;;;4823465;29;20054;-95
2022/04/25 04:28:45;;;;;;;0.10;0.10;;;;;;;;;;4812590;29;20514;-96
2022/04/25 04:31:30;;;;;;;0.10;0.10;;;;;;;;;;4794498;29;20058;-96
2022/04/25 04:41:10;;;;;;;0.10;0.10;;;;;;;;;;4792238;30;20051;-96
2022/04/25 04:51:24;;;;;;;0.10;0.10;;;;;;;;;;5024064;24;20061;-96
2022/04/25 04:53:50;;;;;;;0.10;0.10;;;;;;;;;;4793774;29;20187;-96
2022/04/25 04:57:34;;;;;;;;;;;;;;;;;;;;;
2022/04/25 05:11:43;;;;;;;0.20;0.20;;;;;;;;;;5444349;24;20045;-96
2022/04/25 05:14:15;;;;;;;0.10;0.10;;;;;;;;;;4827112;29;20065;-95
2022/04/25 05:16:44;;;;;;;0.10;0.10;;;;;;;;;;4845283;29;20085;-96
2022/04/25 05:19:10;;;;;;;0.15;0.15;;;;;;;;;;4921267;24;20046;-95
2022/04/25 05:21:38;;;;;;;0.10;0.10;;;;;;;;;;4832751;29;20048;-94
2022/04/25 05:24:04;;;;;;;0.10;0.10;;;;;;;;;;4822078;29;20110;-96
2022/04/25 05:26:43;;;;;;;0.38;0.20;;;;;;;;;;4800176;29;20056;-96
2022/04/25 05:29:09;;;;;;;0.05;0.05;;;;;;;;;;4832852;29;20093;-94
2022/04/25 05:31:35;;;;;;;0.20;0.20;;;;;;;;;;4814922;29;20034;-93
2022/04/25 05:34:09;;;;;;;0.10;0.10;;;;;;;;;;4797863;29;20050;-94
2022/04/25 05:36:35;;;;;;;0.10;0.10;;;;;;;;;;4797547;29;20030;-96
2022/04/25 05:39:01;;;;;;;0.20;0.20;;;;;;;;;;4794352;29;20042;-94
2022/04/25 05:41:27;;;;;;;0.10;0.10;;;;;;;;;;4793728;29;20046;-94
2022/04/25 05:43:53;;;;;;;0.20;0.20;;;;;;;;;;4792625;29;20042;-94
2022/04/25 05:46:20;;;;;;;0.10;0.10;;;;;;;;;;4792869;29;20045;-93
2022/04/25 05:54:17;;;;;;;0.35;0.35;;;;;;;;;;4825355;29;20046;-93
2022/04/25 05:56:43;;;;;;;0.10;0.10;;;;;;;;;;4810720;29;20046;-92
2022/04/25 05:59:13;;;;;;;0.10;0.10;;;;;;;;;;4811008;29;20049;-91
2022/04/25 06:01:39;;;;;;;0.10;0.10;;;;;;;;;;4811827;29;20086;-93
2022/04/25 06:04:06;;;;;;;0.10;0.10;;;;;;;;;;4815135;29;20102;-94
2022/04/25 06:06:32;;;;;;;0.20;0.20;;;;;;;;;;4810649;29;20038;-94
2022/04/25 06:09:00;;;;;;;0.15;0.15;;;;;;;;;;4799147;29;20043;-95
2022/04/25 06:11:28;;;;;;;0.10;0.10;;;;;;;;;;4796576;29;20054;-96
2022/04/25 06:14:02;;;;;;;0.10;0.10;;;;;;;;;;4817217;29;20480;-96
2022/04/25 06:16:39;;;;;;;0.20;0.20;;;;;;;;;;4795662;30;20051;-95
2022/04/25 06:19:06;;;;;;;0.20;0.20;;;;;;;;;;4872730;24;20057;-96
2022/04/25 06:21:33;;;;;;;0.15;0.15;;;;;;;;;;4802742;29;20062;-96
2022/04/25 06:27:54;;;;;;;0.10;0.10;;;;;;;;;;4811566;29;20129;-95
2022/04/25 06:30:57;;;;;;;;;;;;;;;;;;;;;
2022/04/25 06:34:21;;;;;;;0.10;0.10;;;;;;;;;;4813354;29;20055;-96
2022/04/25 06:37:55;;;;;;;0.20;0.20;;;;;;;;;;4794787;29;20043;-96
2022/04/25 06:40:22;;;;;;;0.10;0.10;;;;;;;;;;4797400;29;20054;-96
2022/04/25 06:43:09;;;;;;;0.10;0.10;;;;;;;;;;4791907;29;20515;-95
2022/04/25 06:45:35;;;;;;;5.05;0.80;;;;;;;;;;4776430;29;20051;-95
2022/04/25 06:48:01;;;;;;;0.20;0.20;;;;;;;;;;4781522;29;20115;-93
2022/04/25 06:50:27;;;;;;;0.10;0.10;;;;;;;;;;4776471;29;20051;-95
2022/04/25 06:53:05;;;;;;;;;;;;;;;;;;;;;
2022/04/25 06:55:59;;;;;;;0.10;0.10;;;;;;;;;;4814102;29;20053;-94
2022/04/25 06:58:31;;;;;;;0.10;0.10;;;;;;;;;;4799140;29;20089;-95
2022/04/25 07:01:04;;;;;;;0.17;0.17;;;;;;;;;;4801531;29;20058;-95
2022/04/25 07:03:31;;;;;;;0.10;0.10;;;;;;;;;;4793357;29;20081;-93
2022/04/25 07:05:57;;;;;;;0.20;0.20;;;;;;;;;;4794757;29;20103;-93
2022/04/25 07:08:24;;;;;;;0.10;0.10;;;;;;;;;;4800933;29;20184;-92
2022/04/25 07:10:50;;;;;;;2.10;1.10;;;;;;;;;;4812025;29;20042;-91
2022/04/25 07:13:17;;;;;;;0.10;0.10;;;;;;;;;;4803931;29;20103;-93
2022/04/25 07:15:43;;;;;;;0.20;0.20;;;;;;;;;;4809769;29;20051;-92
2022/04/25 07:18:09;;;;;;;0.10;0.10;;;;;;;;;;4779501;29;20050;-91
2022/04/25 07:20:36;;;;;;;0.20;0.20;;;;;;;;;;4793008;29;20058;-90
2022/04/25 07:31:19;;;;;;;0.20;0.20;;;;;;;;;;4809084;29;20089;-93
2022/04/25 07:33:45;;;;;;;0.10;0.10;;;;;;;;;;4794637;29;20065;-93
2022/04/25 07:36:12;;;;;;;0.95;0.95;;;;;;;;;;4808360;29;20046;-94
2022/04/25 07:39:13;;;;;;;0.10;0.10;;;;;;;;;;5010340;24;20058;-96
2022/04/25 07:41:44;;;;;;;0.10;0.10;;;;;;;;;;4805381;29;20054;-94
2022/04/25 07:44:10;;;;;;;0.10;0.10;;;;;;;;;;4791468;29;20526;-93
2022/04/25 07:46:40;;;;;;;0.20;0.20;;;;;;;;;;4787472;29;20089;-93
2022/04/25 07:49:07;;;;;;;0.10;0.10;;;;;;;;;;4802025;29;20047;-93
2022/04/25 07:51:33;;;;;;;0.10;0.10;;;;;;;;;;4802043;29;20047;-92
2022/04/25 07:53:59;;;;;;;0.43;0.30;;;;;;;;;;4802186;29;20080;-94
2022/04/25 07:56:26;;;;;;;0.10;0.10;;;;;;;;;;4803659;29;20047;-93
2022/04/25 07:59:08;;;;;;;0.10;0.10;;;;;;;;;;4821761;29;20060;-95
2022/04/25 08:01:40;;;;;;;0.20;0.20;;;;;;;;;;4807880;29;20043;-94
2022/04/25 08:04:06;;;;;;;0.10;0.10;;;;;;;;;;4805221;29;20512;-96
2022/04/25 08:06:32;;;;;;;0.20;0.20;;;;;;;;;;4803138;29;20050;-96
2022/04/25 08:09:02;;;;;;;0.10;0.10;;;;;;;;;;4805676;29;20051;-96
2022/04/25 08:11:30;;;;;;;0.10;0.10;;;;;;;;;;4804311;29;20138;-96
2022/04/25 08:20:08;;;;;;;0.10;0.10;;;;;;;;;;4805343;29;20142;-95
2022/04/25 08:25:12;;;;;;;0.20;0.20;;;;;;;;;;5134592;24;20060;-96
2022/04/25 08:27:56;;;;;;;0.05;0.05;;;;;;;;;;4828011;29;20118;-96
2022/04/25 08:30:30;;;;;;;1.77;0.40;;;;;;;;;;4820318;29;20046;-96
2022/04/25 08:33:08;;;;;;;0.10;0.10;;;;;;;;;;4813691;29;20372;-94
2022/04/25 08:35:38;;;;;;;0.10;0.10;;;;;;;;;;4794748;29;20133;-94
2022/04/25 08:38:07;;;;;;;0.10;0.10;;;;;;;;;;4793994;29;20048;-96
2022/04/25 08:40:40;;;;;;;0.10;0.10;;;;;;;;;;4794117;29;20055;-96
2022/04/25 08:43:07;;;;;;;0.20;0.20;;;;;;;;;;4794561;29;20054;-94
2022/04/25 08:45:33;;;;;;;0.10;0.10;;;;;;;;;;4793570;29;20078;-94
2022/04/25 08:47:59;;;;;;;0.20;0.20;;;;;;;;;;4793320;29;20039;-94
2022/04/25 08:50:26;;;;;;;0.10;0.10;;;;;;;;;;4793424;29;20505;-94
2022/04/25 08:52:53;;;;;;;0.10;0.10;;;;;;;;;;4794288;29;20506;-94
2022/04/25 08:55:19;;;;;;;0.10;0.10;;;;;;;;;;4794194;29;20050;-93
2022/04/25 08:57:45;;;;;;;0.10;0.10;;;;;;;;;;4793000;29;20476;-92
2022/04/25 09:00:12;;;;;;;1.55;0.30;;;;;;;;;;4807805;29;20046;-94
2022/04/25 09:02:41;;;;;;;0.17;0.17;;;;;;;;;;4811453;29;20049;-94
2022/04/25 09:05:07;;;;;;;0.10;0.10;;;;;;;;;;4792802;29;20578;-93
2022/04/25 09:07:35;;;;;;;0.10;0.10;;;;;;;;;;4792661;29;20137;-93
2022/04/25 09:10:02;;;;;;;0.10;0.10;;;;;;;;;;4792930;29;20050;-93
2022/04/25 09:12:31;;;;;;;0.52;0.28;;;;;;;;;;4822993;29;20047;-94
2022/04/25 09:14:57;;;;;;;0.20;0.20;;;;;;;;;;4793104;29;20046;-92
2022/04/25 09:17:23;;;;;;;0.20;0.20;;;;;;;;;;4792706;29;20042;-94
2022/04/25 09:19:49;;;;;;;0.10;0.10;;;;;;;;;;4792702;29;20050;-91
2022/04/25 09:22:28;;;;;;;0.10;0.10;;;;;;;;;;4792075;29;20053;-92
2022/04/25 09:24:54;;;;;;;0.10;0.10;;;;;;;;;;4794401;29;20137;-89
2022/04/25 09:27:23;;;;;;;0.10;0.10;;;;;;;;;;4809844;29;20073;-91
2022/04/25 09:29:49;;;;;;;0.10;0.10;;;;;;;;;;4801058;29;20070;-91
2022/04/25 09:32:18;;;;;;;0.10;0.10;;;;;;;;;;4794575;29;20479;-91
2022/04/25 09:35:05;;;;;;;0.10;0.10;;;;;;;;;;4799770;29;20054;-91
2022/04/25 09:37:51;;;;;;;0.10;0.10;;;;;;;;;;4803078;29;20042;-91
2022/04/25 09:40:21;;;;;;;0.20;0.20;;;;;;;;;;4807758;29;20077;-90
2022/04/25 09:42:48;;;;;;;0.10;0.10;;;;;;;;;;4810736;29;20075;-92
2022/04/25 09:45:15;;;;;;;0.10;0.10;;;;;;;;;;4814940;29;20102;-91
2022/04/25 09:47:41;;;;;;;0.10;0.10;;;;;;;;;;4796971;29;20391;-92
2022/04/25 09:50:08;;;;;;;0.10;0.10;;;;;;;;;;4795341;29;20042;-92
2022/04/25 09:52:35;;;;;;;0.80;0.38;;;;;;;;;;4795217;29;20046;-91
2022/04/25 09:55:17;;;;;;;0.10;0.10;;;;;;;;;;4795088;29;20103;-92
2022/04/25 09:57:46;;;;;;;0.10;0.10;;;;;;;;;;4795173;29;20474;-90
2022/04/25 10:00:14;;;;;;;0.10;0.10;;;;;;;;;;4810484;29;20554;-92
2022/04/25 10:02:40;;;;;;;0.10;0.10;;;;;;;;;;4793721;29;20126;-91
2022/04/25 10:05:14;;;;;;;0.10;0.10;;;;;;;;;;4793197;29;20055;-90
2022/04/25 10:07:42;;;;;;;0.22;0.22;;;;;;;;;;4822755;29;20138;-91
2022/04/25 10:10:09;;;;;;;0.10;0.10;;;;;;;;;;4815721;29;20494;-90
2022/04/25 10:12:36;;;;;;;0.10;0.10;;;;;;;;;;4812631;29;20050;-90
2022/04/25 10:15:03;;;;;;;0.10;0.10;;;;;;;;;;4798459;29;20047;-90
2022/04/25 10:17:31;;;;;;;0.10;0.10;;;;;;;;;;4795876;29;20050;-94
2022/04/25 10:19:57;;;;;;;0.10;0.10;;;;;;;;;;4796599;29;20054;-92
2022/04/25 10:22:23;;;;;;;0.20;0.20;;;;;;;;;;4776741;29;20074;-92
2022/04/25 10:24:49;;;;;;;0.17;0.17;;;;;;;;;;4793889;29;20093;-93
2022/04/25 10:27:17;;;;;;;0.10;0.10;;;;;;;;;;4794757;29;20046;-92
2022/04/25 10:29:44;;;;;;;0.10;0.10;;;;;;;;;;4794646;29;20038;-91
2022/04/25 10:32:11;;;;;;;0.10;0.10;;;;;;;;;;4794502;29;20099;-91
2022/04/25 10:35:04;;;;;;;0.28;0.28;;;;;;;;;;4794344;29;20050;-89
2022/04/25 10:37:31;;;;;;;;;;;;;;;;;;4788649;29;20045;-92
2022/04/25 10:39:57;;;;;;;0.20;0.20;;;;;;;;;;4773625;29;20024;-92
2022/04/25 10:45:09;;;;;;;0.10;0.10;;;;;;;;;;4773091;29;20403;-90
2022/04/25 10:47:36;;;;;;;0.13;0.13;;;;;;;;;;4769354;29;20086;-90
2022/04/25 10:50:06;;;;;;;0.20;0.20;;;;;;;;;;4770510;29;20053;-94
2022/04/25 10:52:33;;;;;;;0.10;0.10;;;;;;;;;;4771199;29;20453;-90
2022/04/25 10:55:19;;;;;;;0.10;0.10;;;;;;;;;;4798785;29;20053;-90
2022/04/25 10:58:04;;;;;;;0.10;0.10;;;;;;;;;;4802328;29;20093;-90
2022/04/25 11:00:43;;;;;;;0.10;0.10;;;;;;;;;;4803065;29;20065;-90
2022/04/25 11:03:14;;;;;;;0.10;0.10;;;;;;;;;;4786692;29;20057;-90
2022/04/25 11:05:41;;;;;;;0.28;0.28;;;;;;;;;;4772227;29;20141;-91
2022/04/25 11:08:26;;;;;;;0.10;0.10;;;;;;;;;;4786665;29;20053;-89
2022/04/25 11:10:59;;;;;;;0.10;0.10;;;;;;;;;;4768878;29;20053;-89
2022/04/25 11:13:26;;;;;;;0.10;0.10;;;;;;;;;;4784737;29;20057;-89
2022/04/25 11:16:09;;;;;;;0.10;0.10;;;;;;;;;;4787660;29;20058;-91
2022/04/25 11:18:37;;;;;;;0.10;0.10;;;;;;;;;;4788474;29;20118;-92
2022/04/25 11:21:11;;;;;;;0.20;0.20;;;;;;;;;;4787633;29;20107;-91
2022/04/25 11:23:43;;;;;;;0.10;0.10;;;;;;;;;;4788093;29;20975;-90
2022/04/25 11:26:11;;;;;;;0.43;0.43;;;;;;;;;;4803025;29;20419;-91
2022/04/25 11:29:09;;;;;;;0.10;0.10;;;;;;;;;;4787518;29;20042;-91
2022/04/25 11:31:35;;;;;;;0.10;0.10;;;;;;;;;;4818025;29;20046;-93
2022/04/25 11:34:02;;;;;;;0.20;0.20;;;;;;;;;;4788493;29;20781;-93
2022/04/25 11:36:29;;;;;;;0.10;0.10;;;;;;;;;;4795302;29;20073;-91
2022/04/25 11:41:39;;;;;;;0.10;0.10;;;;;;;;;;4821032;29;20419;-90
2022/04/25 11:44:05;;;;;;;0.10;0.10;;;;;;;;;;4820735;29;20057;-91
2022/04/25 11:46:33;;;;;;;0.10;0.10;;;;;;;;;;4786807;29;20057;-93
2022/04/25 11:49:03;;;;;;;0.10;0.10;;;;;;;;;;4771664;29;20870;-94
2022/04/25 11:51:32;;;;;;;0.10;0.10;;;;;;;;;;4770803;29;20133;-93
2022/04/25 11:54:00;;;;;;;0.10;0.10;;;;;;;;;;4770243;29;20055;-92
2022/04/25 11:56:29;;;;;;;0.10;0.10;;;;;;;;;;4769415;29;20053;-94
2022/04/25 11:58:56;;;;;;;0.10;0.10;;;;;;;;;;4770052;29;20047;-92
2022/04/25 12:01:32;;;;;;;0.10;0.10;;;;;;;;;;4771906;29;20111;-92
2022/04/25 12:04:16;;;;;;;0.10;0.10;;;;;;;;;;4787904;29;20046;-94
2022/04/25 12:07:06;;;;;;;0.10;0.10;;;;;;;;;;4789360;29;20050;-93
2022/04/25 12:17:51;;;;;;;0.10;0.10;;;;;;;;;;4802849;29;20054;-93
2022/04/25 12:20:18;;;;;;;0.10;0.10;;;;;;;;;;4784965;29;20058;-91
2022/04/25 12:22:51;;;;;;;0.10;0.10;;;;;;;;;;4783341;29;20103;-91
2022/04/25 12:25:19;;;;;;;0.10;0.10;;;;;;;;;;4783156;29;20116;-95
2022/04/25 12:28:01;;;;;;;0.10;0.10;;;;;;;;;;4783881;29;20050;-93
2022/04/25 12:30:32;;;;;;;0.10;0.10;;;;;;;;;;4783886;29;20432;-93
2022/04/25 12:33:12;;;;;;;0.10;0.10;;;;;;;;;;4813054;29;20058;-93
2022/04/25 12:35:38;;;;;;;0.10;0.10;;;;;;;;;;4800179;29;20142;-92
2022/04/25 12:38:07;;;;;;;0.10;0.10;;;;;;;;;;4786593;29;20478;-93
2022/04/25 12:40:33;;;;;;;0.20;0.20;;;;;;;;;;4787259;29;20050;-90
2022/04/25 12:43:00;;;;;;;0.10;0.10;;;;;;;;;;4786825;29;20050;-92
2022/04/25 12:45:27;;;;;;;0.10;0.10;;;;;;;;;;4791352;29;20042;-94
2022/04/25 12:47:56;;;;;;;0.20;0.20;;;;;;;;;;4801097;29;20050;-91
2022/04/25 12:50:42;;;;;;;0.20;0.20;;;;;;;;;;4815691;29;20050;-90
2022/04/25 12:53:08;;;;;;;0.10;0.10;;;;;;;;;;4797002;29;20050;-92
2022/04/25 12:55:44;;;;;;;0.10;0.10;;;;;;;;;;4787203;29;20050;-92
2022/04/25 12:58:10;;;;;;;0.20;0.20;;;;;;;;;;4787437;29;20050;-94
2022/04/25 13:00:43;;;;;;;0.10;0.10;;;;;;;;;;4787361;29;20058;-92
2022/04/25 13:03:10;;;;;;;;;;;;;;;;;;4787162;29;20053;-90
2022/04/25 13:05:36;;;;;;;0.10;0.10;;;;;;;;;;4786288;29;20456;-92
2022/04/25 13:08:02;;;;;;;0.10;0.10;;;;;;;;;;4797715;29;20053;-92
2022/04/25 13:10:28;;;;;;;0.10;0.10;;;;;;;;;;4793643;29;20049;-91
2022/04/25 13:12:55;;;;;;;0.10;0.10;;;;;;;;;;4805573;29;20099;-90
2022/04/25 13:15:22;;;;;;;0.60;0.60;;;;;;;;;;4786776;29;20050;-90
2022/04/25 13:17:48;;;;;;;0.10;0.10;;;;;;;;;;4802240;29;20046;-90
2022/04/25 13:20:15;;;;;;;0.10;0.10;;;;;;;;;;4786376;29;20055;-91
2022/04/25 13:22:44;;;;;;;0.10;0.10;;;;;;;;;;4787496;29;20057;-90
2022/04/25 13:25:11;;;;;;;0.10;0.10;;;;;;;;;;4804248;29;20065;-92
2022/04/25 13:27:37;;;;;;;0.20;0.20;;;;;;;;;;4805753;29;20050;-92
2022/04/25 13:30:05;;;;;;;0.20;0.20;;;;;;;;;;4805802;29;20046;-90
2022/04/25 13:32:32;;;;;;;0.10;0.10;;;;;;;;;;4790504;29;20050;-93
2022/04/25 13:34:58;;;;;;;0.30;0.30;;;;;;;;;;4791132;29;20054;-93
2022/04/25 13:37:25;;;;;;;0.10;0.10;;;;;;;;;;4790766;29;20061;-91
2022/04/25 13:39:52;;;;;;;0.10;0.10;;;;;;;;;;4790767;29;20077;-91
2022/04/25 13:42:18;;;;;;;0.10;0.10;;;;;;;;;;4811082;29;20054;-93
2022/04/25 13:44:44;;;;;;;0.10;0.10;;;;;;;;;;4810462;29;20114;-93
2022/04/25 13:47:10;;;;;;;0.10;0.10;;;;;;;;;;4795495;29;20133;-92
2022/04/25 13:49:38;;;;;;;0.10;0.10;;;;;;;;;;4791472;29;20479;-93
2022/04/25 13:52:04;;;;;;;0.10;0.10;;;;;;;;;;4795486;29;20072;-93
2022/04/25 13:54:31;;;;;;;0.10;0.10;;;;;;;;;;4810481;29;20084;-93
2022/04/25 13:56:59;;;;;;;0.10;0.10;;;;;;;;;;4805643;29;20057;-93
2022/04/25 13:59:25;;;;;;;0.10;0.10;;;;;;;;;;4789276;29;20054;-93
2022/04/25 14:01:51;;;;;;;0.10;0.10;;;;;;;;;;4788275;29;20405;-91
2022/04/25 14:04:17;;;;;;;0.10;0.10;;;;;;;;;;4788774;29;20050;-91
2022/04/25 14:06:43;;;;;;;0.10;0.10;;;;;;;;;;4789007;29;20486;-92
2022/04/25 14:09:10;;;;;;;0.10;0.10;;;;;;;;;;4797343;29;20049;-93
2022/04/25 14:11:36;;;;;;;0.20;0.20;;;;;;;;;;4807228;29;20484;-91
2022/04/25 14:14:02;;;;;;;0.10;0.10;;;;;;;;;;4801009;29;20050;-91
2022/04/25 14:16:36;;;;;;;0.10;0.10;;;;;;;;;;4788717;29;20057;-90
2022/04/25 14:19:02;;;;;;;0.10;0.10;;;;;;;;;;4787676;29;20054;-90
2022/04/25 14:21:28;;;;;;;0.10;0.10;;;;;;;;;;4787735;29;20089;-89
2022/04/25 14:23:54;;;;;;;0.10;0.10;;;;;;;;;;4787081;29;20133;-91
2022/04/25 14:26:20;;;;;;;0.10;0.10;;;;;;;;;;4788598;29;20058;-91
2022/04/25 14:28:46;;;;;;;0.10;0.10;;;;;;;;;;4788221;29;20134;-90
2022/04/25 14:31:12;;;;;;;0.10;0.10;;;;;;;;;;4788122;29;20387;-88
2022/04/25 14:33:38;;;;;;;0.10;0.10;;;;;;;;;;4787577;29;20106;-89
2022/04/25 14:36:04;;;;;;;0.10;0.10;;;;;;;;;;4788411;29;20069;-89
2022/04/25 14:38:30;;;;;;;0.10;0.10;;;;;;;;;;4787443;29;20046;-89
2022/04/25 14:40:57;;;;;;;0.10;0.10;;;;;;;;;;4802096;29;20056;-91
2022/04/25 14:43:23;;;;;;;0.10;0.10;;;;;;;;;;4788362;29;20054;-89
2022/04/25 14:45:49;;;;;;;0.10;0.10;;;;;;;;;;4787694;29;20050;-89
2022/04/25 14:48:16;;;;;;;0.10;0.10;;;;;;;;;;4788617;29;20540;-92
2022/04/25 14:56:10;;;;;;;0.10;0.10;;;;;;;;;;4804371;29;20050;-92
2022/04/25 14:58:36;;;;;;;0.10;0.10;;;;;;;;;;4804187;29;20115;-91
2022/04/25 15:01:02;;;;;;;0.10;0.10;;;;;;;;;;4788715;29;20058;-92
2022/04/25 15:03:32;;;;;;;0.10;0.10;;;;;;;;;;4789643;29;20047;-88
2022/04/25 15:05:58;;;;;;;0.10;0.10;;;;;;;;;;4809700;29;20112;-88
2022/04/25 15:08:24;;;;;;;0.10;0.10;;;;;;;;;;4808043;29;20061;-89
2022/04/25 15:10:50;;;;;;;0.10;0.10;;;;;;;;;;4791939;29;20065;-89
2022/04/25 15:13:16;;;;;;;0.15;0.15;;;;;;;;;;4788119;29;20143;-89
2022/04/25 15:15:42;;;;;;;0.10;0.10;;;;;;;;;;4802068;29;20085;-89
2022/04/25 15:18:08;;;;;;;0.10;0.10;;;;;;;;;;4802217;29;20479;-90
2022/04/25 15:20:35;;;;;;;0.20;0.20;;;;;;;;;;4786968;29;20232;-89
2022/04/25 15:23:06;;;;;;;0.10;0.10;;;;;;;;;;4813039;29;20050;-90
2022/04/25 15:25:32;;;;;;;0.10;0.10;;;;;;;;;;4803127;29;20058;-91
2022/04/25 15:28:03;;;;;;;0.10;0.10;;;;;;;;;;4772739;29;20047;-91
2022/04/25 15:30:29;;;;;;;0.10;0.10;;;;;;;;;;4788029;29;20046;-90
2022/04/25 15:32:55;;;;;;;0.10;0.10;;;;;;;;;;4802815;29;20487;-90
2022/04/25 15:35:21;;;;;;;0.10;0.10;;;;;;;;;;4787483;29;20046;-95
2022/04/25 15:37:47;;;;;;;0.10;0.10;;;;;;;;;;4791538;29;20093;-91
2022/04/25 15:40:14;;;;;;;0.10;0.10;;;;;;;;;;4793933;29;20042;-91
2022/04/25 15:42:40;;;;;;;0.10;0.10;;;;;;;;;;4790415;29;20082;-92
2022/04/25 15:45:06;;;;;;;0.10;0.10;;;;;;;;;;4790790;29;20081;-91
2022/04/25 15:47:33;;;;;;;0.20;0.20;;;;;;;;;;4790377;29;20526;-91
2022/04/25 15:50:01;;;;;;;0.10;0.10;;;;;;;;;;4790619;29;20047;-92
2022/04/25 15:52:29;;;;;;;0.17;0.17;;;;;;;;;;4790649;29;20114;-92
2022/04/25 15:57:43;;;;;;;0.10;0.10;;;;;;;;;;4789828;29;20053;-90
2022/04/25 16:00:10;;;;;;;0.20;0.20;;;;;;;;;;4814856;29;20049;-90
2022/04/25 16:02:36;;;;;;;0.10;0.10;;;;;;;;;;4789852;29;20047;-89
2022/04/25 16:05:02;;;;;;;0.10;0.10;;;;;;;;;;4797633;29;20046;-90
2022/04/25 16:07:28;;;;;;;0.20;0.20;;;;;;;;;;4772251;29;20050;-89
2022/04/25 16:09:55;;;;;;;0.20;0.20;;;;;;;;;;4786834;29;20054;-95
2022/04/25 16:12:22;;;;;;;0.10;0.10;;;;;;;;;;4788058;29;20083;-93
2022/04/25 16:14:48;;;;;;;0.10;0.10;;;;;;;;;;4788179;29;20062;-91
2022/04/25 16:17:16;;;;;;;0.10;0.10;;;;;;;;;;4802619;29;20570;-91
2022/04/25 16:19:42;;;;;;;0.20;0.20;;;;;;;;;;4787751;29;20058;-94
2022/04/25 16:22:08;;;;;;;0.10;0.10;;;;;;;;;;4792813;29;20153;-90
2022/04/25 16:24:35;;;;;;;0.20;0.20;;;;;;;;;;4792564;29;20065;-90
2022/04/25 16:27:01;;;;;;;0.30;0.30;;;;;;;;;;4792654;29;20415;-93
2022/04/25 16:29:28;;;;;;;0.10;0.10;;;;;;;;;;4794434;29;20042;-92
2022/04/25 16:31:54;;;;;;;0.10;0.10;;;;;;;;;;4796181;29;20406;-92
2022/04/25 16:34:24;;;;;;;0.10;0.10;;;;;;;;;;4792849;29;20042;-94
2022/04/25 16:36:51;;;;;;;0.10;0.10;;;;;;;;;;4797400;29;20122;-91
2022/04/25 16:39:19;;;;;;;0.20;0.20;;;;;;;;;;4795054;29;20128;-91
2022/04/25 16:41:49;;;;;;;0.10;0.10;;;;;;;;;;4796738;29;20456;-90
2022/04/25 16:44:15;;;;;;;0.20;0.20;;;;;;;;;;4809809;29;20414;-91
2022/04/25 16:46:46;;;;;;;0.10;0.10;;;;;;;;;;4792111;29;20202;-91
2022/04/25 16:49:12;;;;;;;0.20;0.20;;;;;;;;;;4792356;29;20046;-92
2022/04/25 16:51:39;;;;;;;0.20;0.20;;;;;;;;;;4806933;29;20047;-92
2022/04/25 16:54:05;;;;;;;0.10;0.10;;;;;;;;;;4777391;29;20102;-90
2022/04/25 16:56:31;;;;;;;0.10;0.10;;;;;;;;;;4777289;29;20376;-91
2022/04/25 16:58:57;;;;;;;0.10;0.10;;;;;;;;;;4807186;29;20038;-93
2022/04/25 17:01:23;;;;;;;0.10;0.10;;;;;;;;;;4780819;29;20049;-92
2022/04/25 17:03:49;;;;;;;0.10;0.10;;;;;;;;;;4807495;29;20407;-91
2022/04/25 17:06:16;;;;;;;0.10;0.10;;;;;;;;;;4807588;29;20050;-90
2022/04/25 17:08:42;;;;;;;0.10;0.10;;;;;;;;;;4789071;29;20145;-90
2022/04/25 17:11:08;;;;;;;0.10;0.10;;;;;;;;;;4789124;29;20180;-90
2022/04/25 17:13:38;;;;;;;0.10;0.10;;;;;;;;;;4791632;29;20044;-90
2022/04/25 17:16:04;;;;;;;0.20;0.20;;;;;;;;;;4791555;29;20095;-90
2022/04/25 17:18:30;;;;;;;0.10;0.10;;;;;;;;;;4791395;29;20042;-90
2022/04/25 17:20:56;;;;;;;0.30;0.30;;;;;;;;;;4792068;29;20145;-90
2022/04/25 17:23:22;;;;;;;0.10;0.10;;;;;;;;;;4792079;29;20142;-89
2022/04/25 17:25:48;;;;;;;0.30;0.30;;;;;;;;;;4789318;29;20460;-90
2022/04/25 17:28:14;;;;;;;0.10;0.10;;;;;;;;;;4799426;29;20099;-90
2022/04/25 17:30:40;;;;;;;0.20;0.20;;;;;;;;;;4794676;29;20046;-90
2022/04/25 17:35:54;;;;;;;0.10;0.10;;;;;;;;;;4807301;29;20058;-91
